createdAt,value
2023-03-12T00:00:09.030Z,69.39
2023-03-12T00:02:35.718Z,69.02
2023-03-12T00:05:02.669Z,68.60
2023-03-12T00:07:29.218Z,69.06
2023-03-12T00:09:55.825Z,69.02
2023-03-12T00:12:22.464Z,68.94
2023-03-12T00:14:49.054Z,68.88
2023-03-12T00:17:15.621Z,69.03
2023-03-12T00:19:42.219Z,68.80
2023-03-12T00:22:08.805Z,68.64
2023-03-12T00:24:35.381Z,68.69
2023-03-12T00:27:01.961Z,68.67
2023-03-12T00:29:28.556Z,67.73
2023-03-12T00:31:55.146Z,68.53
2023-03-12T00:34:21.750Z,68.37
2023-03-12T00:36:48.312Z,70.04
2023-03-12T00:39:14.924Z,68.01
2023-03-12T00:41:41.665Z,68.67
2023-03-12T00:44:08.349Z,68.72
2023-03-12T00:46:34.989Z,67.61
2023-03-12T00:49:02.051Z,67.21
2023-03-12T00:51:28.619Z,67.83
2023-03-12T00:53:56.018Z,67.60
2023-03-12T00:56:24.048Z,67.82
2023-03-12T00:58:50.747Z,67.89
2023-03-12T01:01:17.670Z,66.88
2023-03-12T01:03:45.566Z,66.82
2023-03-12T01:06:12.262Z,67.44
2023-03-12T01:08:39.023Z,67.19
2023-03-12T01:11:06.474Z,67.96
2023-03-12T01:13:33.332Z,66.91
2023-03-12T01:16:00.179Z,66.58
2023-03-12T01:18:26.885Z,67.43
2023-03-12T01:20:53.505Z,67.16
2023-03-12T01:23:20.157Z,66.71
2023-03-12T01:25:47.542Z,67.32
2023-03-12T01:28:14.318Z,66.40
2023-03-12T01:30:40.913Z,67.07
2023-03-12T01:33:07.577Z,67.07
2023-03-12T01:35:39.481Z,67.47
2023-03-12T01:38:13.357Z,67.35
2023-03-12T01:40:41.405Z,67.12
2023-03-12T01:43:26.001Z,67.29
2023-03-12T01:46:05.131Z,66.74
2023-03-12T01:48:39.656Z,67.18
2023-03-12T01:51:09.081Z,67.21
2023-03-12T01:53:37.904Z,67.11
2023-03-12T01:56:05.492Z,66.74
2023-03-12T01:58:36.329Z,67.48
2023-03-12T02:01:02.989Z,67.12
2023-03-12T02:03:32.008Z,66.94
2023-03-12T02:06:06.904Z,66.79
2023-03-12T02:08:38.304Z,66.62
2023-03-12T02:11:05.390Z,66.56
2023-03-12T02:13:32.245Z,66.75
2023-03-12T02:15:58.980Z,66.99
2023-03-12T02:18:25.693Z,66.65
2023-03-12T02:21:18.310Z,66.06
2023-03-12T02:23:54.903Z,66.54
2023-03-12T02:26:23.664Z,65.86
2023-03-12T02:28:51.149Z,66.19
2023-03-12T02:31:21.871Z,67.42
2023-03-12T02:33:48.605Z,67.81
2023-03-12T02:36:15.271Z,67.39
2023-03-12T02:38:45.245Z,67.11
2023-03-12T02:41:27.628Z,67.28
2023-03-12T02:43:54.163Z,68.00
2023-03-12T02:46:21.395Z,67.91
2023-03-12T02:48:48.073Z,67.43
2023-03-12T02:51:14.912Z,67.12
2023-03-12T02:53:41.600Z,67.33
2023-03-12T02:56:08.424Z,68.30
2023-03-12T02:58:36.252Z,68.52
2023-03-12T03:01:03.260Z,67.51
2023-03-12T03:03:29.837Z,67.42
2023-03-12T03:05:56.940Z,67.73
2023-03-12T03:08:24.003Z,67.58
2023-03-12T03:10:52.494Z,67.88
2023-03-12T03:13:19.098Z,68.15
2023-03-12T03:15:45.942Z,68.06
2023-03-12T03:18:12.661Z,67.16
2023-03-12T03:20:39.325Z,66.89
2023-03-12T03:23:05.916Z,67.87
2023-03-12T03:25:33.669Z,67.52
2023-03-12T03:28:00.489Z,67.91
2023-03-12T03:30:27.275Z,68.44
2023-03-12T03:32:54.316Z,68.95
2023-03-12T03:35:22.593Z,69.08
2023-03-12T03:37:49.393Z,68.67
2023-03-12T03:40:16.046Z,69.57
2023-03-12T03:42:42.946Z,70.23
2023-03-12T03:45:10.754Z,70.88
2023-03-12T03:47:39.225Z,71.22
2023-03-12T03:50:06.813Z,71.15
2023-03-12T03:52:34.209Z,72.11
2023-03-12T03:55:01.614Z,72.52
2023-03-12T03:57:31.407Z,73.10
2023-03-12T04:00:00.306Z,73.35
2023-03-12T04:02:36.630Z,73.84
2023-03-12T04:05:03.705Z,74.10
2023-03-12T04:07:30.694Z,74.46
2023-03-12T04:09:58.227Z,74.86
2023-03-12T04:12:28.099Z,75.01
2023-03-12T04:14:54.762Z,76.17
2023-03-12T04:17:21.895Z,76.23
2023-03-12T04:19:48.587Z,77.42
2023-03-12T04:22:15.345Z,77.28
2023-03-12T04:24:41.995Z,77.93
2023-03-12T04:27:08.585Z,77.93
2023-03-12T04:29:35.442Z,77.58
2023-03-12T04:32:02.168Z,78.49
2023-03-12T04:34:28.780Z,79.68
2023-03-12T04:36:56.428Z,79.47
2023-03-12T04:39:23.128Z,79.51
2023-03-12T04:41:51.716Z,80.11
2023-03-12T04:44:18.520Z,79.93
2023-03-12T04:46:45.374Z,80.31
2023-03-12T04:49:16.006Z,80.31
2023-03-12T04:51:43.359Z,81.24
2023-03-12T04:54:10.088Z,80.35
2023-03-12T04:56:38.447Z,79.53
2023-03-12T04:59:05.683Z,80.05
2023-03-12T05:01:35.870Z,79.47
2023-03-12T05:04:07.227Z,79.12
2023-03-12T05:06:35.794Z,79.26
2023-03-12T05:09:03.921Z,78.56
2023-03-12T05:11:30.561Z,79.04
2023-03-12T05:13:57.682Z,79.16
2023-03-12T05:16:24.431Z,78.52
2023-03-12T05:18:51.406Z,78.22
2023-03-12T05:21:20.997Z,77.75
2023-03-12T05:23:50.716Z,77.20
2023-03-12T05:26:23.012Z,77.20
2023-03-12T05:28:52.283Z,77.37
2023-03-12T05:31:20.519Z,77.54
2023-03-12T05:33:48.586Z,76.22
2023-03-12T05:36:17.451Z,76.34
2023-03-12T05:38:46.005Z,75.42
2023-03-12T05:41:23.262Z,75.97
2023-03-12T05:43:53.549Z,75.99
2023-03-12T05:46:21.057Z,76.14
2023-03-12T05:48:48.057Z,77.29
2023-03-12T05:51:16.527Z,77.61
2023-03-12T05:53:43.386Z,77.95
2023-03-12T05:56:13.993Z,78.75
2023-03-12T05:58:41.059Z,79.96
2023-03-12T06:01:17.980Z,81.22
2023-03-12T06:03:45.414Z,81.37
2023-03-12T06:06:12.732Z,82.70
2023-03-12T06:08:41.607Z,82.79
2023-03-12T06:11:09.872Z,83.01
2023-03-12T06:13:36.684Z,83.25
2023-03-12T06:16:11.571Z,83.67
2023-03-12T06:18:38.555Z,84.39
2023-03-12T06:21:20.399Z,85.84
2023-03-12T06:23:49.243Z,86.69
2023-03-12T06:26:22.014Z,87.44
2023-03-12T06:28:50.043Z,87.12
2023-03-12T06:31:18.075Z,87.94
2023-03-12T06:33:44.818Z,89.75
2023-03-12T06:36:12.274Z,90.56
2023-03-12T06:38:39.455Z,90.80
2023-03-12T06:41:11.363Z,91.39
2023-03-12T06:43:39.234Z,91.82
2023-03-12T06:46:07.845Z,92.18
2023-03-12T06:48:36.855Z,92.63
2023-03-12T06:51:04.730Z,93.32
2023-03-12T06:53:31.754Z,92.57
2023-03-12T06:55:58.589Z,93.31
2023-03-12T06:58:25.609Z,93.71
2023-03-12T07:00:53.470Z,93.44
2023-03-12T07:03:20.190Z,93.91
2023-03-12T07:05:48.783Z,92.87
2023-03-12T07:08:16.393Z,93.71
2023-03-12T07:10:43.327Z,94.78
2023-03-12T07:13:09.976Z,95.64
2023-03-12T07:15:36.913Z,96.19
2023-03-12T07:18:08.627Z,96.59
2023-03-12T07:20:44.121Z,96.33
2023-03-12T07:23:11.250Z,96.33
2023-03-12T07:25:40.098Z,95.90
2023-03-12T07:28:07.714Z,95.57
2023-03-12T07:30:35.059Z,97.51
2023-03-12T07:33:03.204Z,98.29
2023-03-12T07:35:31.371Z,99.95
2023-03-12T07:37:59.126Z,98.62
2023-03-12T07:40:25.903Z,96.85
2023-03-12T07:42:52.579Z,97.58
2023-03-12T07:45:20.509Z,97.25
2023-03-12T07:47:47.768Z,98.38
2023-03-12T07:50:14.922Z,96.42
2023-03-12T07:52:41.635Z,96.32
2023-03-12T07:55:09.531Z,95.56
2023-03-12T07:57:36.628Z,96.30
2023-03-12T08:00:07.291Z,96.03
2023-03-12T08:02:38.389Z,95.53
2023-03-12T08:05:06.497Z,96.33
2023-03-12T08:07:35.210Z,95.50
2023-03-12T08:10:03.827Z,93.87
2023-03-12T08:12:30.573Z,92.59
2023-03-12T08:14:57.218Z,93.62
2023-03-12T08:17:23.969Z,94.64
2023-03-12T08:19:50.611Z,94.47
2023-03-12T08:22:17.758Z,95.10
2023-03-12T08:24:44.416Z,94.73
2023-03-12T08:27:12.365Z,93.93
2023-03-12T08:29:39.662Z,93.00
2023-03-12T08:32:07.374Z,92.84
2023-03-12T08:34:34.949Z,92.19
2023-03-12T08:37:02.933Z,93.60
2023-03-12T08:39:29.848Z,93.51
2023-03-12T08:41:56.716Z,92.81
2023-03-12T08:44:23.589Z,93.64
2023-03-12T08:46:51.552Z,93.82
2023-03-12T08:49:18.958Z,94.08
2023-03-12T08:51:45.546Z,95.61
2023-03-12T08:54:12.163Z,94.19
2023-03-12T08:56:42.038Z,94.13
2023-03-12T08:59:12.922Z,92.95
2023-03-12T09:01:43.067Z,93.47
2023-03-12T09:04:10.832Z,94.17
2023-03-12T09:06:38.607Z,94.31
2023-03-12T09:09:05.815Z,95.45
2023-03-12T09:11:33.995Z,94.95
2023-03-12T09:14:49.875Z,95.51
2023-03-12T09:16:48.982Z,95.29
2023-03-12T09:19:16.020Z,95.24
2023-03-12T09:21:42.669Z,95.63
2023-03-12T09:24:10.296Z,94.11
2023-03-12T09:26:36.885Z,94.80
2023-03-12T09:29:03.521Z,94.04
2023-03-12T09:31:32.301Z,94.13
2023-03-12T09:33:59.017Z,94.18
2023-03-12T09:36:25.616Z,94.18
2023-03-12T09:38:52.262Z,94.24
2023-03-12T09:41:25.865Z,94.72
2023-03-12T09:44:00.116Z,94.24
2023-03-12T09:46:43.040Z,94.44
2023-03-12T09:49:38.490Z,95.22
2023-03-12T09:52:21.538Z,95.31
2023-03-12T09:54:59.328Z,94.79
2023-03-12T09:57:27.500Z,95.60
2023-03-12T09:59:54.258Z,93.96
2023-03-12T10:02:56.569Z,93.12
2023-03-12T10:06:01.431Z,92.22
2023-03-12T10:08:52.920Z,92.63
2023-03-12T10:11:37.289Z,92.48
2023-03-12T10:14:24.262Z,91.69
2023-03-12T10:17:12.396Z,89.65
2023-03-12T10:19:57.144Z,89.54
2023-03-12T10:22:36.602Z,88.42
2023-03-12T10:25:12.506Z,87.86
2023-03-12T10:27:40.589Z,88.73
2023-03-12T10:30:19.866Z,89.46
2023-03-12T10:32:52.132Z,87.85
2023-03-12T10:35:22.521Z,88.96
2023-03-12T10:37:54.510Z,88.83
2023-03-12T10:40:35.924Z,89.11
2023-03-12T10:43:04.529Z,89.82
2023-03-12T10:45:38.786Z,89.70
2023-03-12T10:48:09.059Z,89.54
2023-03-12T10:50:41.230Z,89.41
2023-03-12T10:53:23.891Z,90.50
2023-03-12T10:56:00.685Z,90.39
2023-03-12T10:58:33.475Z,90.11
2023-03-12T11:01:02.227Z,90.08
2023-03-12T11:03:30.362Z,90.49
2023-03-12T11:06:01.624Z,89.89
2023-03-12T11:08:35.579Z,90.39
2023-03-12T11:11:05.428Z,90.19
2023-03-12T11:13:40.708Z,88.90
2023-03-12T11:16:16.777Z,88.44
2023-03-12T11:18:59.957Z,87.37
2023-03-12T11:21:26.930Z,87.68
2023-03-12T11:23:56.570Z,87.86
2023-03-12T11:26:49.429Z,87.09
2023-03-12T11:29:31.565Z,85.86
2023-03-12T11:32:17.276Z,84.24
2023-03-12T11:34:49.823Z,83.72
2023-03-12T11:37:26.046Z,85.12
2023-03-12T11:40:36.680Z,84.52
2023-03-12T11:43:12.782Z,84.51
2023-03-12T11:46:08.810Z,82.31
2023-03-12T11:48:56.902Z,79.65
2023-03-12T11:51:44.157Z,79.53
2023-03-12T11:54:29.472Z,79.66
2023-03-12T11:57:06.163Z,80.76
2023-03-12T11:59:46.066Z,81.66
2023-03-12T12:02:56.985Z,81.89
2023-03-12T12:05:58.443Z,83.58
2023-03-12T12:08:59.081Z,83.26
2023-03-12T12:11:51.160Z,83.05
2023-03-12T12:14:17.714Z,83.41
2023-03-12T12:16:50.482Z,84.89
2023-03-12T12:19:28.098Z,84.83
2023-03-12T12:22:25.566Z,84.66
2023-03-12T12:25:19.735Z,85.13
2023-03-12T12:28:08.148Z,83.00
2023-03-12T12:30:42.198Z,83.94
2023-03-12T12:33:15.532Z,82.95
2023-03-12T12:35:43.710Z,82.92
2023-03-12T12:38:18.303Z,81.54
2023-03-12T12:40:53.021Z,82.20
2023-03-12T12:43:28.155Z,81.62
2023-03-12T12:45:59.615Z,82.31
2023-03-12T12:48:50.608Z,82.35
2023-03-12T12:51:21.547Z,83.64
2023-03-12T12:54:05.133Z,83.55
2023-03-12T12:56:54.008Z,84.01
2023-03-12T12:59:38.188Z,83.34
2023-03-12T13:02:35.690Z,82.87
2023-03-12T13:05:03.131Z,82.60
2023-03-12T13:07:34.351Z,81.95
2023-03-12T13:10:07.223Z,82.04
2023-03-12T13:12:47.602Z,82.41
2023-03-12T13:15:29.660Z,82.80
2023-03-12T13:17:56.196Z,82.52
2023-03-12T13:20:40.260Z,82.23
2023-03-12T13:23:32.433Z,82.12
2023-03-12T13:26:08.018Z,82.05
2023-03-12T13:28:56.925Z,81.23
2023-03-12T13:31:29.349Z,80.92
2023-03-12T13:34:20.542Z,81.02
2023-03-12T13:37:03.773Z,81.28
2023-03-12T13:39:35.637Z,81.12
2023-03-12T13:42:25.396Z,80.91
2023-03-12T13:44:53.988Z,80.03
2023-03-12T13:47:30.353Z,80.10
2023-03-12T13:50:01.809Z,80.05
2023-03-12T13:52:33.233Z,79.85
2023-03-12T13:55:05.915Z,79.67
2023-03-12T13:57:45.891Z,79.10
2023-03-12T14:00:36.650Z,79.15
2023-03-12T14:03:12.352Z,78.86
2023-03-12T14:06:05.733Z,77.95
2023-03-12T14:08:54.367Z,77.84
2023-03-12T14:11:21.198Z,77.10
2023-03-12T14:14:12.455Z,77.16
2023-03-12T14:16:43.735Z,77.49
2023-03-12T14:19:16.480Z,77.81
2023-03-12T14:21:46.012Z,77.08
2023-03-12T14:24:35.360Z,77.02
2023-03-12T14:27:04.861Z,76.25
2023-03-12T14:29:48.625Z,76.11
2023-03-12T14:32:24.034Z,75.95
2023-03-12T14:35:22.042Z,75.88
2023-03-12T14:38:04.859Z,74.71
2023-03-12T14:40:46.846Z,75.16
2023-03-12T14:43:25.881Z,75.20
2023-03-12T14:46:02.095Z,74.65
2023-03-12T14:48:38.270Z,75.21
2023-03-12T14:51:07.509Z,75.11
2023-03-12T14:53:39.527Z,74.88
2023-03-12T14:56:12.835Z,74.77
2023-03-12T14:58:48.215Z,75.38
2023-03-12T15:01:31.124Z,73.82
2023-03-12T15:04:04.004Z,73.65
2023-03-12T15:06:34.554Z,73.40
2023-03-12T15:09:04.876Z,73.46
2023-03-12T15:11:35.286Z,73.88
2023-03-12T15:14:14.533Z,74.45
2023-03-12T15:16:43.593Z,74.84
2023-03-12T15:19:14.324Z,74.16
2023-03-12T15:21:41.032Z,73.79
2023-03-12T15:24:13.262Z,73.86
2023-03-12T15:26:41.413Z,73.47
2023-03-12T15:29:13.819Z,73.74
2023-03-12T15:31:49.806Z,72.87
2023-03-12T15:34:33.777Z,72.73
2023-03-12T15:37:19.050Z,72.50
2023-03-12T15:39:49.802Z,72.53
2023-03-12T15:42:19.609Z,72.46
2023-03-12T15:44:49.661Z,71.44
2023-03-12T15:47:22.680Z,71.62
2023-03-12T15:50:18.791Z,71.63
2023-03-12T15:53:17.993Z,71.33
2023-03-12T15:56:02.916Z,70.90
2023-03-12T15:58:35.481Z,70.04
2023-03-12T16:01:09.592Z,70.23
2023-03-12T16:03:39.755Z,70.30
2023-03-12T16:06:26.841Z,69.78
2023-03-12T16:08:58.069Z,70.48
2023-03-12T16:11:27.465Z,71.39
2023-03-12T16:14:34.517Z,71.23
2023-03-12T16:17:01.188Z,71.50
2023-03-12T16:19:30.295Z,71.89
2023-03-12T16:21:57.184Z,72.19
2023-03-12T16:24:23.851Z,72.35
2023-03-12T16:26:53.395Z,71.39
2023-03-12T16:29:21.078Z,71.51
2023-03-12T16:31:54.297Z,71.53
2023-03-12T16:34:21.566Z,71.92
2023-03-12T16:36:48.168Z,72.11
2023-03-12T16:39:15.089Z,71.89
2023-03-12T16:41:42.848Z,72.88
2023-03-12T16:44:15.846Z,72.21
2023-03-12T16:46:44.696Z,72.61
2023-03-12T16:49:16.200Z,73.10
2023-03-12T16:51:43.183Z,72.82
2023-03-12T16:54:12.050Z,73.27
2023-03-12T16:56:43.201Z,73.75
2023-03-12T16:59:28.301Z,73.24
2023-03-12T17:01:56.586Z,73.51
2023-03-12T17:04:24.488Z,74.02
2023-03-12T17:06:51.934Z,73.10
2023-03-12T17:09:20.318Z,73.04
2023-03-12T17:11:51.808Z,73.12
2023-03-12T17:14:22.798Z,72.92
2023-03-12T17:16:50.642Z,72.70
2023-03-12T17:19:18.111Z,72.81
2023-03-12T17:21:46.134Z,73.46
2023-03-12T17:24:17.536Z,73.55
2023-03-12T17:26:49.105Z,73.68
2023-03-12T17:29:15.967Z,73.82
2023-03-12T17:31:42.540Z,74.36
2023-03-12T17:34:09.356Z,74.68
2023-03-12T17:36:37.846Z,74.37
2023-03-12T17:39:04.884Z,75.10
2023-03-12T17:41:32.545Z,75.09
2023-03-12T17:44:01.709Z,74.92
2023-03-12T17:46:30.175Z,74.98
2023-03-12T17:48:56.957Z,74.95
2023-03-12T17:51:23.667Z,73.60
2023-03-12T17:53:50.301Z,73.65
2023-03-12T17:56:18.169Z,74.04
2023-03-12T17:58:45.643Z,73.70
2023-03-12T18:01:13.525Z,73.09
2023-03-12T18:03:40.458Z,73.20
2023-03-12T18:06:07.126Z,72.78
2023-03-12T18:08:33.754Z,72.55
2023-03-12T18:11:01.735Z,73.12
2023-03-12T18:13:31.815Z,72.93
2023-03-12T18:15:59.362Z,72.67
2023-03-12T18:18:26.629Z,73.10
2023-03-12T18:20:53.323Z,73.16
2023-03-12T18:23:20.320Z,73.48
2023-03-12T18:25:47.094Z,73.37
2023-03-12T18:28:15.294Z,73.77
2023-03-12T18:30:41.935Z,73.42
2023-03-12T18:33:08.522Z,73.86
2023-03-12T18:35:35.229Z,73.38
2023-03-12T18:38:01.921Z,73.70
2023-03-12T18:40:29.640Z,73.88
2023-03-12T18:43:00.432Z,73.70
2023-03-12T18:45:28.072Z,74.05
2023-03-12T18:47:54.921Z,73.73
2023-03-12T18:50:21.680Z,74.14
2023-03-12T18:52:48.229Z,74.65
2023-03-12T18:55:18.337Z,74.42
2023-03-12T18:57:47.213Z,74.37
2023-03-12T19:00:17.709Z,74.89
2023-03-12T19:02:50.653Z,75.11
2023-03-12T19:05:17.540Z,74.81
2023-03-12T19:07:44.233Z,74.98
2023-03-12T19:10:12.081Z,75.31
2023-03-12T19:12:50.849Z,75.37
2023-03-12T19:15:18.800Z,74.96
2023-03-12T19:17:45.420Z,75.09
2023-03-12T19:20:13.052Z,75.26
2023-03-12T19:22:39.747Z,75.39
2023-03-12T19:25:06.618Z,75.17
2023-03-12T19:27:33.398Z,75.52
2023-03-12T19:30:00.043Z,75.69
2023-03-12T19:32:33.360Z,75.41
2023-03-12T19:35:10.974Z,75.82
2023-03-12T19:37:37.572Z,75.59
2023-03-12T19:40:05.909Z,75.76
2023-03-12T19:42:32.827Z,76.07
2023-03-12T19:44:59.554Z,76.56
2023-03-12T19:47:26.760Z,76.34
2023-03-12T19:49:53.455Z,76.63
2023-03-12T19:52:20.207Z,76.95
2023-03-12T19:54:54.634Z,77.19
2023-03-12T19:57:29.701Z,77.66
2023-03-12T19:59:56.413Z,77.72
2023-03-12T20:02:23.123Z,78.21
2023-03-12T20:04:50.002Z,78.31
2023-03-12T20:07:18.406Z,78.52
2023-03-12T20:09:45.309Z,79.09
2023-03-12T20:12:11.896Z,78.81
2023-03-12T20:14:39.803Z,79.13
2023-03-12T20:17:07.397Z,78.41
2023-03-12T20:19:34.049Z,77.73
2023-03-12T20:22:00.719Z,77.52
2023-03-12T20:24:27.436Z,77.12
2023-03-12T20:26:54.085Z,76.89
2023-03-12T20:29:20.645Z,77.15
2023-03-12T20:31:47.388Z,77.31
2023-03-12T20:34:14.103Z,77.27
2023-03-12T20:36:40.691Z,76.67
2023-03-12T20:39:07.306Z,76.00
2023-03-12T20:41:34.331Z,75.46
2023-03-12T20:44:00.922Z,75.85
2023-03-12T20:46:27.573Z,75.26
2023-03-12T20:48:56.618Z,75.81
2023-03-12T20:51:24.750Z,75.77
2023-03-12T20:53:51.426Z,76.26
2023-03-12T20:56:18.052Z,76.43
2023-03-12T20:58:44.675Z,76.20
2023-03-12T21:01:11.397Z,75.93
2023-03-12T21:03:37.994Z,76.07
2023-03-12T21:06:04.842Z,75.69
2023-03-12T21:08:32.891Z,75.59
2023-03-12T21:10:59.563Z,75.73
2023-03-12T21:13:26.663Z,76.02
2023-03-12T21:15:53.359Z,76.13
2023-03-12T21:18:19.939Z,76.72
2023-03-12T21:20:46.807Z,76.86
2023-03-12T21:23:13.566Z,76.71
2023-03-12T21:25:41.297Z,76.96
2023-03-12T21:28:09.733Z,77.05
2023-03-12T21:30:36.927Z,77.53
2023-03-12T21:33:03.960Z,77.39
2023-03-12T21:35:30.700Z,77.77
2023-03-12T21:37:57.511Z,78.10
2023-03-12T21:40:24.677Z,78.17
2023-03-12T21:42:51.297Z,78.34
2023-03-12T21:45:17.935Z,78.57
2023-03-12T21:47:44.575Z,78.98
2023-03-12T21:50:11.775Z,79.41
2023-03-12T21:52:47.688Z,79.42
2023-03-12T21:55:15.051Z,80.09
2023-03-12T21:57:41.902Z,80.67
2023-03-12T22:00:13.112Z,80.96
2023-03-12T22:02:44.649Z,81.09
2023-03-12T22:05:12.183Z,81.54
2023-03-12T22:07:39.051Z,82.17
2023-03-12T22:10:07.468Z,82.39
2023-03-12T22:12:34.131Z,82.71
2023-03-12T22:15:00.727Z,82.85
2023-03-12T22:17:27.790Z,82.76
2023-03-12T22:19:54.596Z,83.30
2023-03-12T22:22:22.471Z,83.63
2023-03-12T22:24:49.053Z,83.55
2023-03-12T22:27:15.664Z,83.71
2023-03-12T22:29:43.502Z,83.72
2023-03-12T22:32:10.125Z,83.78
2023-03-12T22:34:37.522Z,84.13
2023-03-12T22:37:04.119Z,84.31
2023-03-12T22:39:30.723Z,85.00
2023-03-12T22:41:57.914Z,85.01
2023-03-12T22:44:24.517Z,85.50
2023-03-12T22:46:52.072Z,85.57
2023-03-12T22:49:18.875Z,85.35
2023-03-12T22:51:45.921Z,86.06
2023-03-12T22:54:12.611Z,85.49
2023-03-12T22:56:39.991Z,85.03
2023-03-12T22:59:07.515Z,85.32
2023-03-12T23:01:34.402Z,85.00
2023-03-12T23:04:01.332Z,84.43
2023-03-12T23:06:30.110Z,85.01
2023-03-12T23:08:58.237Z,84.88
2023-03-12T23:11:27.200Z,84.90
2023-03-12T23:13:54.644Z,84.86
2023-03-12T23:16:25.081Z,84.70
2023-03-12T23:18:52.382Z,84.91
2023-03-12T23:21:21.952Z,85.12
2023-03-12T23:23:49.869Z,84.85
2023-03-12T23:26:19.661Z,84.72
2023-03-12T23:28:47.399Z,84.97
2023-03-12T23:31:16.249Z,84.55
2023-03-12T23:33:44.256Z,84.51
2023-03-12T23:36:14.509Z,84.41
2023-03-12T23:38:42.030Z,84.30
2023-03-12T23:41:18.269Z,83.85
2023-03-12T23:43:45.692Z,83.43
2023-03-12T23:46:14.080Z,83.52
2023-03-12T23:48:41.121Z,83.68
2023-03-12T23:51:09.416Z,83.95
2023-03-12T23:53:37.102Z,84.12
2023-03-12T23:56:06.391Z,84.10
2023-03-12T23:58:33.078Z,84.16
